메인 페이지
METAR-TAF:

METAR-TAF

공항 :

캔자스시티, 미주리, 미국

위도: 39-17-50N, 경도: 094-43-50W, 고도: 312m

현재 날씨관측

예보는 34분 전, 21:53시(UTC)에 발표되었습니다.
11kt
온도 -8°C
습도 85%
기압 1025 hPa
시정: 16.1km
고도 3700ft 상공 구름 조금
고도 9000ft 상공 구름 많음

METAR: KMCI 202153Z 09011KT 10SM FEW037 BKN090 M08/M10 A3027 RMK AO2 SLP268 T10781100 $

시각: 16:27 (22:27 UTC)

예보

예보는 5 시간 7분 전, 17:20시(UTC)에 발표되었습니다.
예보 대상 시간: 20일 18시부터 21일 18시까지 (UTC)
동남동7kt
시정: 10km
고도 3500ft 상공 구름 보통
고도 10000ft 상공 구름 많음
21일 0200시부터 (UTC)
12kt
시정: 10km
고도 12000ft 상공 구름 많음
21일 1500시부터 (UTC)
남동15kt, 순간 최대 풍속 25kt
시정: 10km
고도 15000ft 상공 구름 많음

TAF: KMCI 201720Z 2018/2118 12007KT P6SM SCT035 BKN100 FM210200 09012KT P6SM BKN120 FM211500 13015G25KT P6SM BKN150

4,000개 이상의 공항 관측 자료 및 예보 (METAR 및 TAF 보고).

지도상에서 검색 가능한 기상관측소가 노란 점과 빨간 점으로 표시되어 있습니다.

기상관측소 명을 보려면 표시 위로 마우스를 이동하세요.

날씨 관측과 예보를 보려면 클릭하세요.

지도 변경 : 확대하려면 엑스 표시가 있는 녹색 버튼, 축소하려면 빼기 표시가 있는 녹색 버튼, 다음 페이지의 지도를 보려면 녹색 화살표를 클릭하세요.


METAR-TAF: